createdAt,value
2017-05-11T00:00:05.619Z,937.62
2017-05-11T00:01:18.402Z,937.6
2017-05-11T00:02:31.181Z,937.64
2017-05-11T00:03:43.492Z,937.61
2017-05-11T00:04:56.474Z,937.65
2017-05-11T00:06:08.811Z,937.64
2017-05-11T00:07:21.592Z,937.61
2017-05-11T00:08:34.372Z,937.64
2017-05-11T00:09:47.452Z,937.61
2017-05-11T00:11:00.233Z,937.63
2017-05-11T00:12:13.012Z,937.65
2017-05-11T00:13:25.793Z,937.62
2017-05-11T00:14:38.572Z,937.67
2017-05-11T00:15:51.550Z,937.65
2017-05-11T00:17:04.331Z,937.67
2017-05-11T00:18:17.113Z,937.65
2017-05-11T00:19:29.893Z,937.65
2017-05-11T00:20:42.914Z,937.68
2017-05-11T00:21:55.238Z,937.65
2017-05-11T00:23:08.015Z,937.67
2017-05-11T00:24:20.796Z,937.65
2017-05-11T00:25:33.581Z,937.65
2017-05-11T00:26:46.514Z,937.64
2017-05-11T00:27:58.815Z,937.67
2017-05-11T00:29:11.599Z,937.68
2017-05-11T00:30:23.902Z,937.69
2017-05-11T00:31:36.880Z,937.72
2017-05-11T00:32:49.658Z,937.71
2017-05-11T00:34:02.437Z,937.68
2017-05-11T00:35:15.223Z,937.7
2017-05-11T00:36:28.005Z,937.73
2017-05-11T00:37:40.797Z,937.69
2017-05-11T00:38:53.582Z,937.69
2017-05-11T00:40:05.889Z,937.72
2017-05-11T00:41:18.672Z,937.73
2017-05-11T00:42:31.693Z,937.7
2017-05-11T00:43:44.518Z,937.67
2017-05-11T00:44:57.302Z,937.67
2017-05-11T00:46:09.598Z,937.69
2017-05-11T00:47:22.381Z,937.71
2017-05-11T00:48:35.163Z,937.74
2017-05-11T00:49:47.946Z,937.72
2017-05-11T00:51:00.731Z,937.7
2017-05-11T00:52:13.512Z,937.71
2017-05-11T00:53:26.507Z,937.71
2017-05-11T00:54:39.287Z,937.65
2017-05-11T00:55:52.069Z,937.71
2017-05-11T00:57:04.857Z,937.69
2017-05-11T00:58:17.157Z,937.75
2017-05-11T00:59:29.955Z,937.7
2017-05-11T01:00:42.737Z,937.71
2017-05-11T01:01:55.519Z,937.66
2017-05-11T01:03:08.300Z,937.68
2017-05-11T01:04:21.094Z,937.71
2017-05-11T01:05:33.880Z,937.69
2017-05-11T01:06:46.661Z,937.68
2017-05-11T01:07:59.444Z,937.72
2017-05-11T01:09:11.747Z,937.71
2017-05-11T01:10:24.045Z,937.7
2017-05-11T01:11:36.827Z,937.71
2017-05-11T01:12:49.609Z,937.74
2017-05-11T01:14:02.389Z,937.73
2017-05-11T01:15:14.732Z,937.72
2017-05-11T01:16:27.525Z,937.72
2017-05-11T01:17:40.306Z,937.74
2017-05-11T01:18:53.095Z,937.68
2017-05-11T01:20:05.877Z,937.74
2017-05-11T01:21:18.377Z,937.75
2017-05-11T01:22:31.161Z,937.74
2017-05-11T01:23:43.953Z,937.75
2017-05-11T01:24:56.736Z,937.74
2017-05-11T01:26:09.526Z,937.76
2017-05-11T01:27:22.356Z,937.75
2017-05-11T01:28:35.139Z,937.78
2017-05-11T01:29:47.927Z,937.78
2017-05-11T01:31:00.226Z,937.79
2017-05-11T01:32:12.529Z,937.79
2017-05-11T01:33:25.315Z,937.8
2017-05-11T01:34:38.096Z,937.74
2017-05-11T01:35:50.880Z,937.73
2017-05-11T01:37:03.858Z,937.74
2017-05-11T01:38:16.161Z,937.75
2017-05-11T01:39:28.945Z,937.75
2017-05-11T01:40:41.281Z,937.73
2017-05-11T01:41:54.061Z,937.74
2017-05-11T01:43:06.662Z,937.75
2017-05-11T01:44:19.443Z,937.83
2017-05-11T01:45:32.224Z,937.78
2017-05-11T01:46:44.526Z,937.79
2017-05-11T01:47:57.309Z,937.75
2017-05-11T01:49:09.125Z,937.73
2017-05-11T01:50:21.427Z,937.7
2017-05-11T01:51:34.207Z,937.7
2017-05-11T01:52:46.995Z,937.71
2017-05-11T01:53:59.999Z,937.65
2017-05-11T01:55:12.304Z,937.7
2017-05-11T01:56:25.091Z,937.66
2017-05-11T01:57:37.871Z,937.64
2017-05-11T01:58:50.665Z,937.59
2017-05-11T02:00:03.446Z,937.55
2017-05-11T02:01:16.235Z,937.56
2017-05-11T02:02:29.024Z,937.53
2017-05-11T02:03:41.323Z,937.53
2017-05-11T02:04:54.106Z,937.53
2017-05-11T02:06:06.405Z,937.54
2017-05-11T02:07:19.186Z,937.51
2017-05-11T02:08:31.979Z,937.57
2017-05-11T02:09:45.064Z,937.57
2017-05-11T02:10:57.843Z,937.56
2017-05-11T02:12:10.145Z,937.57
2017-05-11T02:13:22.442Z,937.59
2017-05-11T02:14:35.239Z,937.62
2017-05-11T02:15:48.224Z,937.59
2017-05-11T02:17:01.006Z,937.61
2017-05-11T02:18:13.788Z,937.61
2017-05-11T02:19:26.566Z,937.59
2017-05-11T02:20:39.582Z,937.57
2017-05-11T02:21:52.374Z,937.57
2017-05-11T02:23:05.154Z,937.54
2017-05-11T02:24:17.981Z,937.51
2017-05-11T02:25:30.769Z,937.5
2017-05-11T02:26:43.072Z,937.48
2017-05-11T02:27:54.887Z,937.53
2017-05-11T02:29:07.670Z,937.5
2017-05-11T02:30:20.454Z,937.5
2017-05-11T02:31:33.439Z,937.5
2017-05-11T02:32:46.220Z,937.52
2017-05-11T02:33:59.001Z,937.52
2017-05-11T02:35:11.780Z,937.55
2017-05-11T02:36:24.560Z,937.53
2017-05-11T02:37:37.345Z,937.5
2017-05-11T02:38:50.126Z,937.48
2017-05-11T02:40:02.425Z,937.48
2017-05-11T02:41:15.204Z,937.48
2017-05-11T02:42:28.187Z,937.5
2017-05-11T02:43:40.971Z,937.52
2017-05-11T02:44:53.752Z,937.49
2017-05-11T02:46:06.049Z,937.46
2017-05-11T02:47:17.863Z,937.4
2017-05-11T02:48:30.161Z,937.42
2017-05-11T02:49:42.945Z,937.41
2017-05-11T02:50:55.733Z,937.37
2017-05-11T02:52:08.045Z,937.35
2017-05-11T02:53:20.547Z,937.37
2017-05-11T02:54:33.328Z,937.35
2017-05-11T02:55:46.112Z,937.33
2017-05-11T02:56:58.893Z,937.39
2017-05-11T02:58:11.198Z,937.34
2017-05-11T02:59:23.984Z,937.31
2017-05-11T03:00:36.766Z,937.33
2017-05-11T03:01:49.548Z,937.34
2017-05-11T03:03:02.327Z,937.33
2017-05-11T03:04:15.116Z,937.36
2017-05-11T03:05:27.415Z,937.35
2017-05-11T03:06:39.714Z,937.39
2017-05-11T03:07:52.494Z,937.41
2017-05-11T03:09:05.278Z,937.39
2017-05-11T03:10:17.594Z,937.4
2017-05-11T03:11:30.385Z,937.37
2017-05-11T03:12:43.164Z,937.36
2017-05-11T03:13:55.948Z,937.31
2017-05-11T03:15:08.248Z,937.32
2017-05-11T03:16:21.035Z,937.34
2017-05-11T03:17:33.818Z,937.33
2017-05-11T03:18:46.607Z,937.35
2017-05-11T03:19:59.394Z,937.35
2017-05-11T03:21:11.894Z,937.31
2017-05-11T03:22:24.680Z,937.28
2017-05-11T03:23:37.465Z,937.28
2017-05-11T03:24:50.251Z,937.29
2017-05-11T03:26:03.045Z,937.28
2017-05-11T03:27:15.353Z,937.29
2017-05-11T03:28:28.136Z,937.3
2017-05-11T03:29:40.927Z,937.26
2017-05-11T03:30:53.231Z,937.28
2017-05-11T03:32:05.533Z,937.21
2017-05-11T03:33:18.318Z,937.19
2017-05-11T03:34:31.102Z,937.14
2017-05-11T03:35:43.927Z,937.12
2017-05-11T03:36:56.232Z,937.11
2017-05-11T03:38:09.016Z,937.12
2017-05-11T03:39:21.802Z,937.08
2017-05-11T03:40:34.599Z,937.09
2017-05-11T03:41:47.383Z,937.08
2017-05-11T03:42:59.887Z,937.06
2017-05-11T03:44:12.698Z,937.08
2017-05-11T03:45:25.478Z,937.03
2017-05-11T03:46:38.272Z,937.01
2017-05-11T03:47:51.054Z,937.02
2017-05-11T03:49:03.837Z,937
2017-05-11T03:50:16.618Z,937.02
2017-05-11T03:51:29.398Z,936.99
2017-05-11T03:52:41.693Z,936.97
2017-05-11T03:53:54.476Z,937.01
2017-05-11T03:55:07.299Z,936.98
2017-05-11T03:56:20.082Z,936.95
2017-05-11T03:57:32.859Z,936.97
2017-05-11T03:58:45.638Z,936.98
2017-05-11T03:59:58.419Z,937
2017-05-11T04:01:11.202Z,936.94
2017-05-11T04:02:23.983Z,936.94
2017-05-11T04:03:36.772Z,936.92
2017-05-11T04:04:49.554Z,936.92
2017-05-11T04:06:02.339Z,936.9
2017-05-11T04:07:15.122Z,936.94
2017-05-11T04:08:27.420Z,936.91
2017-05-11T04:09:40.401Z,936.99
2017-05-11T04:10:53.191Z,936.94
2017-05-11T04:12:05.970Z,936.99
2017-05-11T04:13:18.267Z,937.02
2017-05-11T04:14:31.045Z,937.02
2017-05-11T04:15:43.822Z,937.01
2017-05-11T04:16:56.601Z,937.06
2017-05-11T04:18:09.385Z,937.09
2017-05-11T04:19:22.165Z,937.06
2017-05-11T04:20:34.944Z,937.03
2017-05-11T04:21:47.726Z,937.01
2017-05-11T04:23:00.508Z,937.01
2017-05-11T04:24:13.294Z,937.01
2017-05-11T04:25:26.083Z,937.01
2017-05-11T04:26:38.861Z,936.99
2017-05-11T04:27:51.160Z,936.99
2017-05-11T04:29:03.459Z,936.97
2017-05-11T04:30:15.755Z,936.97
2017-05-11T04:31:28.837Z,936.96
2017-05-11T04:32:41.616Z,936.92
2017-05-11T04:33:54.402Z,936.92
2017-05-11T04:35:06.700Z,936.94
2017-05-11T04:36:19.514Z,936.91
2017-05-11T04:37:32.296Z,936.89
2017-05-11T04:38:45.079Z,936.87
2017-05-11T04:39:57.857Z,936.85
2017-05-11T04:41:10.640Z,936.86
2017-05-11T04:42:23.722Z,936.85
2017-05-11T04:43:36.510Z,936.82
2017-05-11T04:44:48.809Z,936.82
2017-05-11T04:46:01.590Z,936.81
2017-05-11T04:47:14.370Z,936.79
2017-05-11T04:48:27.149Z,936.82
2017-05-11T04:49:38.969Z,936.82
2017-05-11T04:50:51.748Z,936.72
2017-05-11T04:52:04.529Z,936.78
2017-05-11T04:53:16.358Z,936.78
2017-05-11T04:54:28.664Z,936.79
2017-05-11T04:55:41.449Z,936.79
2017-05-11T04:56:54.229Z,936.75
2017-05-11T04:58:06.532Z,936.76
2017-05-11T04:59:18.835Z,936.73
2017-05-11T05:00:31.627Z,936.72
2017-05-11T05:01:44.411Z,936.71
2017-05-11T05:02:57.188Z,936.73
2017-05-11T05:04:09.976Z,936.7
2017-05-11T05:05:22.755Z,936.71
2017-05-11T05:06:35.537Z,936.72
2017-05-11T05:07:48.321Z,936.68
2017-05-11T05:09:00.625Z,936.68
2017-05-11T05:10:13.126Z,936.66
2017-05-11T05:11:25.945Z,936.65
2017-05-11T05:12:38.727Z,936.6
2017-05-11T05:13:51.506Z,936.57
2017-05-11T05:15:04.286Z,936.59
2017-05-11T05:16:17.064Z,936.57
2017-05-11T05:17:28.919Z,936.57
2017-05-11T05:18:41.706Z,936.6
2017-05-11T05:19:54.495Z,936.6
2017-05-11T05:21:07.118Z,936.6
2017-05-11T05:22:19.904Z,936.59
2017-05-11T05:23:32.205Z,936.62
2017-05-11T05:24:44.503Z,936.64
2017-05-11T05:25:57.045Z,936.65
2017-05-11T05:27:09.843Z,936.66
2017-05-11T05:28:22.626Z,936.66
2017-05-11T05:29:34.925Z,936.68
2017-05-11T05:30:47.234Z,936.67
2017-05-11T05:32:00.323Z,936.62
2017-05-11T05:33:12.630Z,936.64
2017-05-11T05:34:25.412Z,936.65
2017-05-11T05:35:38.199Z,936.62
2017-05-11T05:36:50.508Z,936.62
2017-05-11T05:38:03.292Z,936.59
2017-05-11T05:39:14.630Z,936.6
2017-05-11T05:40:27.410Z,936.58
2017-05-11T05:41:40.194Z,936.56
2017-05-11T05:42:52.808Z,936.56
2017-05-11T05:44:05.111Z,936.55
2017-05-11T05:45:17.415Z,936.51
2017-05-11T05:46:30.204Z,936.44
2017-05-11T05:47:43.189Z,936.49
2017-05-11T05:48:55.979Z,936.48
2017-05-11T05:50:08.281Z,936.45
2017-05-11T05:51:20.588Z,936.45
2017-05-11T05:52:33.378Z,936.45
2017-05-11T05:53:46.160Z,936.41
2017-05-11T05:54:58.940Z,936.42
2017-05-11T05:56:10.278Z,936.39
2017-05-11T05:57:23.068Z,936.44
2017-05-11T05:58:35.859Z,936.4
2017-05-11T05:59:48.638Z,936.38
2017-05-11T06:01:01.422Z,936.39
2017-05-11T06:02:13.249Z,936.38
2017-05-11T06:03:25.074Z,936.35
2017-05-11T06:04:37.866Z,936.33
2017-05-11T06:05:50.647Z,936.32
2017-05-11T06:07:02.950Z,936.33
2017-05-11T06:08:15.255Z,936.35
2017-05-11T06:09:28.042Z,936.33
2017-05-11T06:10:40.347Z,936.31
2017-05-11T06:11:53.137Z,936.31
2017-05-11T06:13:05.974Z,936.32
2017-05-11T06:14:18.282Z,936.29
2017-05-11T06:15:31.368Z,936.32
2017-05-11T06:16:44.153Z,936.36
2017-05-11T06:17:56.944Z,936.35
2017-05-11T06:19:09.252Z,936.32
2017-05-11T06:20:22.043Z,936.31
2017-05-11T06:21:34.826Z,936.33
2017-05-11T06:22:47.616Z,936.36
2017-05-11T06:24:00.401Z,936.34
2017-05-11T06:25:13.186Z,936.34
2017-05-11T06:26:26.267Z,936.33
2017-05-11T06:27:39.049Z,936.32
2017-05-11T06:28:51.875Z,936.3
2017-05-11T06:30:03.696Z,936.32
2017-05-11T06:31:16.477Z,936.29
2017-05-11T06:32:29.267Z,936.31
2017-05-11T06:33:42.065Z,936.33
2017-05-11T06:34:54.856Z,936.3
2017-05-11T06:36:07.172Z,936.32
2017-05-11T06:37:19.958Z,936.29
2017-05-11T06:38:32.270Z,936.27
2017-05-11T06:39:44.575Z,936.28
2017-05-11T06:40:57.352Z,936.25
2017-05-11T06:42:09.854Z,936.3
2017-05-11T06:43:21.674Z,936.25
2017-05-11T06:44:34.463Z,936.24
2017-05-11T06:45:47.249Z,936.24
2017-05-11T06:47:00.031Z,936.24
2017-05-11T06:48:13.122Z,936.29
2017-05-11T06:49:25.911Z,936.28
2017-05-11T06:50:38.699Z,936.28
2017-05-11T06:51:51.475Z,936.24
2017-05-11T06:53:03.774Z,936.22
2017-05-11T06:54:16.578Z,936.2
2017-05-11T06:55:29.363Z,936.22
2017-05-11T06:56:42.143Z,936.2
2017-05-11T06:57:54.925Z,936.24
2017-05-11T06:59:08.029Z,936.18
2017-05-11T07:00:20.336Z,936.21
2017-05-11T07:01:33.120Z,936.23
2017-05-11T07:02:45.900Z,936.25
2017-05-11T07:03:58.705Z,936.22
2017-05-11T07:05:11.493Z,936.28
2017-05-11T07:06:23.321Z,936.28
2017-05-11T07:07:36.102Z,936.29
2017-05-11T07:08:48.893Z,936.29
2017-05-11T07:10:01.400Z,936.29
2017-05-11T07:11:14.181Z,936.3
2017-05-11T07:12:26.961Z,936.31
2017-05-11T07:13:39.260Z,936.31
2017-05-11T07:14:52.248Z,936.31
2017-05-11T07:16:04.564Z,936.34
2017-05-11T07:17:17.351Z,936.31
2017-05-11T07:18:30.143Z,936.28
2017-05-11T07:19:42.976Z,936.28
2017-05-11T07:20:55.584Z,936.28
2017-05-11T07:22:08.376Z,936.29
2017-05-11T07:23:21.169Z,936.35
2017-05-11T07:24:33.963Z,936.3
2017-05-11T07:25:46.751Z,936.3
2017-05-11T07:26:59.091Z,936.31
2017-05-11T07:28:11.399Z,936.34
2017-05-11T07:29:23.698Z,936.29
2017-05-11T07:30:36.493Z,936.32
2017-05-11T07:31:49.582Z,936.31
2017-05-11T07:33:02.365Z,936.34
2017-05-11T07:34:15.149Z,936.31
2017-05-11T07:35:27.931Z,936.31
2017-05-11T07:36:40.714Z,936.28
2017-05-11T07:37:53.493Z,936.3
2017-05-11T07:39:06.280Z,936.3
2017-05-11T07:40:19.097Z,936.28
2017-05-11T07:41:31.879Z,936.28
2017-05-11T07:42:44.957Z,936.35
2017-05-11T07:43:57.740Z,936.34
2017-05-11T07:45:10.518Z,936.34
2017-05-11T07:46:22.816Z,936.37
2017-05-11T07:47:35.600Z,936.3
2017-05-11T07:48:48.379Z,936.3
2017-05-11T07:50:01.158Z,936.33
2017-05-11T07:51:12.978Z,936.31
2017-05-11T07:52:25.280Z,936.33
2017-05-11T07:53:37.399Z,936.34
2017-05-11T07:54:50.177Z,936.3
2017-05-11T07:56:02.473Z,936.34
2017-05-11T07:57:14.804Z,936.31
2017-05-11T07:58:27.586Z,936.33
2017-05-11T07:59:40.362Z,936.31
2017-05-11T08:00:52.182Z,936.33
2017-05-11T08:02:04.489Z,936.29
2017-05-11T08:03:16.789Z,936.3
2017-05-11T08:04:29.870Z,936.34
2017-05-11T08:05:42.654Z,936.33
2017-05-11T08:06:54.959Z,936.42
2017-05-11T08:08:07.264Z,936.37
2017-05-11T08:09:20.050Z,936.4
2017-05-11T08:10:32.358Z,936.39
2017-05-11T08:11:45.139Z,936.44
2017-05-11T08:12:57.921Z,936.42
2017-05-11T08:14:10.709Z,936.42
2017-05-11T08:15:22.827Z,936.39
2017-05-11T08:16:35.610Z,936.33
2017-05-11T08:17:47.914Z,936.34
2017-05-11T08:19:00.702Z,936.32
2017-05-11T08:20:13.482Z,936.35
2017-05-11T08:21:26.274Z,936.41
2017-05-11T08:22:39.069Z,936.43
2017-05-11T08:23:51.383Z,936.43
2017-05-11T08:25:04.165Z,936.4
2017-05-11T08:26:16.770Z,936.47
2017-05-11T08:27:29.558Z,936.48
2017-05-11T08:28:41.857Z,936.44
2017-05-11T08:29:54.153Z,936.42
2017-05-11T08:31:07.245Z,936.41
2017-05-11T08:32:19.557Z,936.4
2017-05-11T08:33:32.346Z,936.46
2017-05-11T08:34:45.128Z,936.47
2017-05-11T08:35:57.910Z,936.49
2017-05-11T08:37:09.732Z,936.48
2017-05-11T08:38:22.523Z,936.55
2017-05-11T08:39:35.314Z,936.55
2017-05-11T08:40:48.095Z,936.54
2017-05-11T08:42:01.177Z,936.58
2017-05-11T08:43:13.505Z,936.52
2017-05-11T08:44:26.289Z,936.6
2017-05-11T08:45:39.072Z,936.61
2017-05-11T08:46:50.889Z,936.62
2017-05-11T08:48:03.878Z,936.59
2017-05-11T08:49:16.185Z,936.66
2017-05-11T08:50:28.965Z,936.64
2017-05-11T08:51:41.788Z,936.68
2017-05-11T08:52:54.585Z,936.74
2017-05-11T08:54:07.381Z,936.75
2017-05-11T08:55:19.202Z,936.76
2017-05-11T08:56:31.510Z,936.79
2017-05-11T08:57:44.302Z,936.78
2017-05-11T08:58:57.292Z,936.81
2017-05-11T09:00:10.072Z,936.82
2017-05-11T09:01:22.378Z,936.78
2017-05-11T09:02:35.167Z,936.8
2017-05-11T09:03:47.478Z,936.83
2017-05-11T09:05:00.261Z,936.83
2017-05-11T09:06:12.610Z,936.88
2017-05-11T09:07:25.391Z,936.89
2017-05-11T09:08:38.178Z,936.9
2017-05-11T09:09:50.479Z,936.92
2017-05-11T09:11:03.262Z,936.96
2017-05-11T09:12:15.560Z,937
2017-05-11T09:13:28.377Z,936.99
2017-05-11T09:14:41.363Z,937.08
2017-05-11T09:15:54.145Z,937.09
2017-05-11T09:17:06.969Z,937.1
2017-05-11T09:18:19.264Z,937.11
2017-05-11T09:19:32.044Z,937.11
2017-05-11T09:20:44.868Z,937.13
2017-05-11T09:21:57.184Z,937.19
2017-05-11T09:23:09.487Z,937.12
2017-05-11T09:24:22.270Z,937.14
2017-05-11T09:25:35.352Z,937.13
2017-05-11T09:26:48.135Z,937.19
2017-05-11T09:28:00.915Z,937.18
2017-05-11T09:29:13.702Z,937.2
2017-05-11T09:30:26.484Z,937.23
2017-05-11T09:31:39.280Z,937.29
2017-05-11T09:32:51.581Z,937.27
2017-05-11T09:34:04.368Z,937.32
2017-05-11T09:35:16.185Z,937.29
2017-05-11T09:36:28.489Z,937.3
2017-05-11T09:37:41.269Z,937.27
2017-05-11T09:38:54.051Z,937.27
2017-05-11T09:40:06.832Z,937.28
2017-05-11T09:41:19.185Z,937.25
2017-05-11T09:42:31.695Z,937.3
2017-05-11T09:43:44.479Z,937.29
2017-05-11T09:44:57.261Z,937.32
2017-05-11T09:46:10.045Z,937.36
2017-05-11T09:47:22.344Z,937.35
2017-05-11T09:48:34.642Z,937.37
2017-05-11T09:49:47.424Z,937.36
2017-05-11T09:50:59.763Z,937.39
2017-05-11T09:52:12.550Z,937.39
2017-05-11T09:53:25.328Z,937.41
2017-05-11T09:54:37.626Z,937.47
2017-05-11T09:55:50.401Z,937.49
2017-05-11T09:57:03.187Z,937.52
2017-05-11T09:58:15.480Z,937.55
2017-05-11T09:59:27.782Z,937.53
2017-05-11T10:00:40.566Z,937.6
2017-05-11T10:01:53.348Z,937.64
2017-05-11T10:03:05.653Z,937.66
2017-05-11T10:04:18.149Z,937.73
2017-05-11T10:05:30.930Z,937.74
2017-05-11T10:06:43.707Z,937.74
2017-05-11T10:07:56.485Z,937.76
2017-05-11T10:09:09.268Z,937.78
2017-05-11T10:10:22.054Z,937.82
2017-05-11T10:11:34.358Z,937.81
2017-05-11T10:12:46.667Z,937.79
2017-05-11T10:13:59.445Z,937.84
2017-05-11T10:15:12.234Z,937.84
2017-05-11T10:16:24.533Z,937.8
2017-05-11T10:17:36.831Z,937.82
2017-05-11T10:18:49.612Z,937.86
2017-05-11T10:20:02.590Z,937.9
2017-05-11T10:21:14.889Z,937.91
2017-05-11T10:22:27.674Z,937.93
2017-05-11T10:23:40.463Z,937.99
2017-05-11T10:24:53.243Z,937.95
2017-05-11T10:26:06.024Z,937.96
2017-05-11T10:27:17.844Z,937.97
2017-05-11T10:28:30.626Z,937.99
2017-05-11T10:29:42.921Z,937.96
2017-05-11T10:30:55.702Z,937.97
2017-05-11T10:32:07.521Z,938.02
2017-05-11T10:33:20.304Z,938.04
2017-05-11T10:34:33.084Z,938.09
2017-05-11T10:35:45.868Z,938.07
2017-05-11T10:36:58.648Z,938.09
2017-05-11T10:38:10.942Z,938.13
2017-05-11T10:39:22.761Z,938.12
2017-05-11T10:40:35.539Z,938.13
2017-05-11T10:41:47.836Z,938.15
2017-05-11T10:43:00.613Z,938.16
2017-05-11T10:44:13.393Z,938.17
2017-05-11T10:45:25.690Z,938.18
2017-05-11T10:46:38.474Z,938.15
2017-05-11T10:47:50.773Z,938.21
2017-05-11T10:49:03.593Z,938.23
2017-05-11T10:50:16.374Z,938.22
2017-05-11T10:51:29.154Z,938.24
2017-05-11T10:52:41.942Z,938.26
2017-05-11T10:53:54.722Z,938.25
2017-05-11T10:55:07.506Z,938.29
2017-05-11T10:56:20.283Z,938.34
2017-05-11T10:57:32.579Z,938.35
2017-05-11T10:58:44.878Z,938.36
2017-05-11T10:59:57.175Z,938.4
2017-05-11T11:01:09.476Z,938.44
2017-05-11T11:02:22.257Z,938.44
2017-05-11T11:03:34.556Z,938.46
2017-05-11T11:04:47.339Z,938.44
2017-05-11T11:06:00.128Z,938.42
2017-05-11T11:07:12.905Z,938.46
2017-05-11T11:08:25.714Z,938.48
2017-05-11T11:09:38.494Z,938.49
2017-05-11T11:10:50.789Z,938.51
2017-05-11T11:12:03.572Z,938.45
2017-05-11T11:13:15.870Z,938.46
2017-05-11T11:14:28.663Z,938.46
2017-05-11T11:15:41.470Z,938.48
2017-05-11T11:16:53.770Z,938.51
2017-05-11T11:18:06.555Z,938.55
2017-05-11T11:19:18.369Z,938.55
2017-05-11T11:20:31.154Z,938.59
2017-05-11T11:21:43.458Z,938.58
2017-05-11T11:22:56.238Z,938.55
2017-05-11T11:24:09.020Z,938.61
2017-05-11T11:25:20.840Z,938.59
2017-05-11T11:26:33.141Z,938.62
2017-05-11T11:27:45.922Z,938.64
2017-05-11T11:28:58.218Z,938.64
2017-05-11T11:30:11.003Z,938.64
2017-05-11T11:31:23.783Z,938.65
2017-05-11T11:32:35.602Z,938.65
2017-05-11T11:33:47.905Z,938.65
2017-05-11T11:34:59.731Z,938.69
2017-05-11T11:36:12.044Z,938.71
2017-05-11T11:37:24.345Z,938.69
2017-05-11T11:38:37.130Z,938.72
2017-05-11T11:39:49.910Z,938.79
2017-05-11T11:41:02.702Z,938.78
2017-05-11T11:42:14.823Z,938.79
2017-05-11T11:43:27.132Z,938.78
2017-05-11T11:44:39.922Z,938.85
2017-05-11T11:45:52.703Z,938.87
2017-05-11T11:47:05.202Z,938.81
2017-05-11T11:48:17.988Z,938.82
2017-05-11T11:49:30.774Z,938.87
2017-05-11T11:50:43.562Z,938.94
2017-05-11T11:51:55.864Z,938.94
2017-05-11T11:53:08.657Z,938.94
2017-05-11T11:54:21.444Z,938.98
2017-05-11T11:55:34.233Z,939
2017-05-11T11:56:46.544Z,939
2017-05-11T11:57:59.380Z,939.05
2017-05-11T11:59:12.169Z,939.03
2017-05-11T12:00:23.991Z,939.04
2017-05-11T12:01:36.776Z,939.06
2017-05-11T12:02:49.562Z,939.09
2017-05-11T12:04:01.865Z,939.11
2017-05-11T12:05:14.656Z,939.1
2017-05-11T12:06:27.441Z,939.12
2017-05-11T12:07:40.228Z,939.16
2017-05-11T12:08:53.315Z,939.1
2017-05-11T12:10:06.102Z,939.2
2017-05-11T12:11:18.886Z,939.12
2017-05-11T12:12:31.199Z,939.14
2017-05-11T12:13:43.988Z,939.14
2017-05-11T12:14:56.782Z,939.11
2017-05-11T12:16:09.565Z,939.13
2017-05-11T12:17:22.346Z,939.13
2017-05-11T12:18:34.649Z,939.2
2017-05-11T12:19:47.640Z,939.17
2017-05-11T12:21:00.421Z,939.22
2017-05-11T12:22:13.210Z,939.23
2017-05-11T12:23:24.552Z,939.27
2017-05-11T12:24:36.367Z,939.27
2017-05-11T12:25:48.675Z,939.26
2017-05-11T12:27:01.454Z,939.27
2017-05-11T12:28:14.232Z,939.29
2017-05-11T12:29:27.016Z,939.32
2017-05-11T12:30:39.319Z,939.29
2017-05-11T12:31:52.101Z,939.27
2017-05-11T12:33:04.885Z,939.27
2017-05-11T12:34:17.187Z,939.25
2017-05-11T12:35:29.969Z,939.29
2017-05-11T12:36:42.750Z,939.3
2017-05-11T12:37:55.052Z,939.3
2017-05-11T12:39:07.843Z,939.28
2017-05-11T12:40:20.627Z,939.32
2017-05-11T12:41:33.416Z,939.28
2017-05-11T12:42:46.403Z,939.31
2017-05-11T12:43:59.188Z,939.34
2017-05-11T12:45:11.992Z,939.38
2017-05-11T12:46:24.789Z,939.37
2017-05-11T12:47:37.788Z,939.42
2017-05-11T12:48:50.576Z,939.32
2017-05-11T12:50:02.882Z,939.33
2017-05-11T12:51:15.667Z,939.36
2017-05-11T12:52:28.461Z,939.36
2017-05-11T12:53:41.264Z,939.38
2017-05-11T12:54:54.053Z,939.41
2017-05-11T12:56:06.364Z,939.36
2017-05-11T12:57:18.671Z,939.42
2017-05-11T12:58:31.450Z,939.4
2017-05-11T12:59:44.237Z,939.42
2017-05-11T13:00:57.026Z,939.39
2017-05-11T13:02:09.817Z,939.43
2017-05-11T13:03:22.606Z,939.38
2017-05-11T13:04:35.396Z,939.4
2017-05-11T13:05:48.179Z,939.41
2017-05-11T13:07:00.961Z,939.46
2017-05-11T13:08:13.742Z,939.47
2017-05-11T13:09:26.243Z,939.48
2017-05-11T13:10:39.031Z,939.45
2017-05-11T13:11:51.343Z,939.44
2017-05-11T13:13:03.657Z,939.43
2017-05-11T13:14:16.448Z,939.39
2017-05-11T13:15:29.235Z,939.4
2017-05-11T13:16:42.033Z,939.4
2017-05-11T13:17:54.333Z,939.39
2017-05-11T13:19:07.122Z,939.4
2017-05-11T13:20:19.421Z,939.39
2017-05-11T13:21:32.204Z,939.35
2017-05-11T13:22:44.995Z,939.38
2017-05-11T13:23:57.778Z,939.39
2017-05-11T13:25:09.597Z,939.29
2017-05-11T13:26:22.385Z,939.34
2017-05-11T13:27:35.167Z,939.31
2017-05-11T13:28:47.987Z,939.31
2017-05-11T13:30:00.776Z,939.3
2017-05-11T13:31:13.873Z,939.27
2017-05-11T13:32:26.703Z,939.33
2017-05-11T13:33:39.013Z,939.29
2017-05-11T13:34:51.311Z,939.32
2017-05-11T13:36:04.096Z,939.37
2017-05-11T13:37:16.876Z,939.33
2017-05-11T13:38:29.177Z,939.36
2017-05-11T13:39:41.965Z,939.29
2017-05-11T13:40:54.743Z,939.33
2017-05-11T13:42:07.059Z,939.32
2017-05-11T13:43:19.363Z,939.28
2017-05-11T13:44:32.143Z,939.26
2017-05-11T13:45:44.925Z,939.26
2017-05-11T13:46:57.707Z,939.27
2017-05-11T13:48:10.496Z,939.26
2017-05-11T13:49:23.287Z,939.26
2017-05-11T13:50:36.084Z,939.23
2017-05-11T13:51:49.402Z,939.25
2017-05-11T13:53:01.725Z,939.13
2017-05-11T13:54:14.051Z,939.12
2017-05-11T13:55:26.854Z,939.1
2017-05-11T13:56:39.164Z,939.11
2017-05-11T13:57:51.959Z,939.09
2017-05-11T13:59:04.273Z,939.14
2017-05-11T14:00:16.589Z,939.08
2017-05-11T14:01:29.388Z,939.04
2017-05-11T14:02:42.191Z,939
2017-05-11T14:03:54.498Z,938.97
2017-05-11T14:05:06.809Z,938.96
2017-05-11T14:06:19.649Z,938.96
2017-05-11T14:07:32.487Z,938.95
2017-05-11T14:08:45.281Z,938.91
2017-05-11T14:09:58.085Z,938.92
2017-05-11T14:11:10.405Z,938.82
2017-05-11T14:12:23.202Z,938.78
2017-05-11T14:13:35.531Z,938.81
2017-05-11T14:14:48.318Z,938.76
2017-05-11T14:16:00.624Z,938.72
2017-05-11T14:17:12.939Z,938.76
2017-05-11T14:18:25.256Z,938.73
2017-05-11T14:19:37.102Z,938.8
2017-05-11T14:20:50.065Z,938.75
2017-05-11T14:22:02.374Z,938.73
2017-05-11T14:23:13.720Z,938.7
2017-05-11T14:24:26.763Z,938.72
2017-05-11T14:25:38.593Z,938.68
2017-05-11T14:26:51.381Z,938.66
2017-05-11T14:28:04.176Z,938.63
2017-05-11T14:29:16.979Z,938.67
2017-05-11T14:30:29.169Z,938.63
2017-05-11T14:31:41.494Z,938.62
2017-05-11T14:32:52.835Z,938.61
2017-05-11T14:34:05.637Z,938.64
2017-05-11T14:35:17.948Z,938.6
2017-05-11T14:36:30.262Z,938.64
2017-05-11T14:37:43.058Z,938.58
2017-05-11T14:38:55.858Z,938.68
2017-05-11T14:40:08.194Z,938.65
2017-05-11T14:41:20.996Z,938.56
2017-05-11T14:42:33.335Z,938.61
2017-05-11T14:43:45.653Z,938.62
2017-05-11T14:44:58.446Z,938.63
2017-05-11T14:46:11.383Z,938.65
2017-05-11T14:47:24.171Z,938.67
2017-05-11T14:48:36.479Z,938.63
2017-05-11T14:49:49.263Z,938.61
2017-05-11T14:51:02.049Z,938.58
2017-05-11T14:52:14.839Z,938.63
2017-05-11T14:53:27.145Z,938.64
2017-05-11T14:54:39.929Z,938.59
2017-05-11T14:55:52.712Z,938.61
2017-05-11T14:57:05.796Z,938.57
2017-05-11T14:58:17.626Z,938.53
2017-05-11T14:59:29.926Z,938.54
2017-05-11T15:00:42.226Z,938.5
2017-05-11T15:01:55.014Z,938.51
2017-05-11T15:03:07.802Z,938.49
2017-05-11T15:04:20.117Z,938.46
2017-05-11T15:05:32.911Z,938.49
2017-05-11T15:06:45.224Z,938.38
2017-05-11T15:07:57.524Z,938.37
2017-05-11T15:09:10.317Z,938.37